Hovedside
METAR-TAF:

METAR-TAF

Lufthavner :

Umeå lufthavn

Umeå, Sverige

breddegrad: 63-48N, lengdegrad: 020-17E, høyde over havet: 7 m

Gjeldene værobservasjon

Denne rapporten ble laget for 23 minutter siden, klokken 15:20 UTC
Vind 5 kt fra Sørøst
Temperatur 11°C
Luftfuktighet 100%
Trykk 1019 hPa
Sikt: 1600 m
dis

METAR: ESNU 301520Z 14005KT 1600 BR VV002 11/11 Q1019

Tid: 17:43 (15:43 UTC)

Varsel

Denne rapporten ble laget for 1 time og 13 minutter siden, klokken 14:30 UTC
Varsel gyldig fra 30. klokken 15 UTC til 30. klokken 24 UTC
Vind 4 kt fra Sør-sørøst
Sikt: 0300 m
i en høyde av 200 ft
tåke
Sannsynlighet 40%
fra 30. klokken 15 UTC til 30. klokken 24 UTC
Sikt: 5000 m

TAF: ESNU 301430Z 3015/3024 15004KT 0300 FG VV002 PROB40 3015/3024 5000 NSW

Værobservasjoner og værvarsel for over 4000 flyplasser (METAR- og TAF-rapporter).

Tilgjengelige stasjoner er representert av de røde og gule prikkene på kartet.

Hold musepekeren over prikken for å se navnet på stasjonen.

Klikk så for å se værobservasjoner og -varsler.

For å forandre kartet kan du klikke på den grønne knappen med svart kryss for å zoome inn, på den grønne knappen med strek for å zoome ut, eller på de grønne pilene for å se tilstøtende kart.


METAR-TAF: